Time;durP1;ratioP1;P1;durP2;ratioP2;P2;SDS_P1;SDS_P2;PMS_P1;PMS_P2;Temp;Humidity;BMP_temperature;BMP_pressure;BME280_temperature;BME280_humidity;BME280_pressure;Samples;Min_cycle;Max_cycle;Signal;HPM_P1;HPM_P2
2022/09/18 00:01:08;;;;;;;0.98;0.60;;;;;;;;;;5047245;28;20233;-66
2022/09/18 00:03:35;;;;;;;0.65;0.30;;;;;;;;;;5043133;28;20247;-66
2022/09/18 00:06:06;;;;;;;0.30;0.30;;;;;;;;;;5044652;28;20283;-65
2022/09/18 00:08:33;;;;;;;1.27;0.50;;;;;;;;;;5041990;28;20208;-65
2022/09/18 00:11:04;;;;;;;0.52;0.35;;;;;;;;;;5044170;28;20251;-66
2022/09/18 00:13:31;;;;;;;0.55;0.40;;;;;;;;;;5041806;28;20280;-65
2022/09/18 00:15:59;;;;;;;0.85;0.60;;;;;;;;;;5045628;28;20531;-66
2022/09/18 00:18:26;;;;;;;0.52;0.40;;;;;;;;;;5042760;28;20228;-66
2022/09/18 00:20:54;;;;;;;0.68;0.50;;;;;;;;;;5051908;28;20233;-66
2022/09/18 00:23:22;;;;;;;1.27;0.45;;;;;;;;;;5049972;28;20602;-66
2022/09/18 00:25:49;;;;;;;0.60;0.40;;;;;;;;;;5049706;28;20296;-65
2022/09/18 00:28:18;;;;;;;1.10;0.40;;;;;;;;;;5050223;28;20290;-65
2022/09/18 00:30:45;;;;;;;0.98;0.50;;;;;;;;;;5048676;28;20229;-66
2022/09/18 00:33:13;;;;;;;0.70;0.35;;;;;;;;;;5047888;28;20208;-65
2022/09/18 00:35:43;;;;;;;0.38;0.30;;;;;;;;;;5047043;28;20295;-65
2022/09/18 00:38:10;;;;;;;0.73;0.40;;;;;;;;;;5046644;28;20196;-66
2022/09/18 00:40:38;;;;;;;1.25;0.50;;;;;;;;;;5050506;28;20539;-66
2022/09/18 00:43:21;;;;;;;1.05;0.30;;;;;;;;;;5047452;28;20514;-66
2022/09/18 00:45:53;;;;;;;0.43;0.35;;;;;;;;;;5048025;28;20241;-66
2022/09/18 00:48:20;;;;;;;0.98;0.38;;;;;;;;;;5044654;28;20498;-66
2022/09/18 00:50:48;;;;;;;1.05;0.55;;;;;;;;;;5047299;28;20246;-66
2022/09/18 00:53:15;;;;;;;0.60;0.40;;;;;;;;;;5044831;28;20201;-66
2022/09/18 00:55:43;;;;;;;0.75;0.40;;;;;;;;;;5046880;28;20193;-66
2022/09/18 00:58:11;;;;;;;0.65;0.50;;;;;;;;;;5047036;28;20216;-66
2022/09/18 01:00:39;;;;;;;0.82;0.52;;;;;;;;;;5046427;28;20296;-66
2022/09/18 01:03:07;;;;;;;1.20;0.50;;;;;;;;;;5048986;28;20283;-66
2022/09/18 01:05:42;;;;;;;0.38;0.32;;;;;;;;;;5051366;28;20778;-65
2022/09/18 01:08:16;;;;;;;0.57;0.40;;;;;;;;;;5045723;28;20291;-66
2022/09/18 01:10:55;;;;;;;0.93;0.40;;;;;;;;;;5046000;28;20560;-66
2022/09/18 01:13:26;;;;;;;0.73;0.50;;;;;;;;;;5047282;28;20204;-66
2022/09/18 01:15:58;;;;;;;1.13;0.47;;;;;;;;;;5046082;28;20231;-66
2022/09/18 01:18:32;;;;;;;0.65;0.50;;;;;;;;;;5044842;28;20285;-66
2022/09/18 01:21:10;;;;;;;1.15;0.50;;;;;;;;;;5045673;28;20635;-66
2022/09/18 01:23:54;;;;;;;0.68;0.40;;;;;;;;;;5045948;28;20665;-65
2022/09/18 01:26:32;;;;;;;0.50;0.40;;;;;;;;;;5032110;28;20515;-66
2022/09/18 01:29:04;;;;;;;0.85;0.38;;;;;;;;;;5048182;28;20293;-66
2022/09/18 01:31:34;;;;;;;0.70;0.40;;;;;;;;;;5043452;28;20255;-66
2022/09/18 01:34:03;;;;;;;1.15;0.40;;;;;;;;;;5047336;28;20252;-65
2022/09/18 01:36:33;;;;;;;0.93;0.35;;;;;;;;;;5046451;28;20228;-66
2022/09/18 01:39:04;;;;;;;1.02;0.40;;;;;;;;;;5050910;28;20271;-65
2022/09/18 01:41:31;;;;;;;0.82;0.40;;;;;;;;;;5049369;28;20220;-66
2022/09/18 01:44:02;;;;;;;1.25;0.50;;;;;;;;;;5049099;28;20778;-66
2022/09/18 01:46:30;;;;;;;1.00;0.40;;;;;;;;;;5047646;28;20543;-66
2022/09/18 01:49:02;;;;;;;0.85;0.40;;;;;;;;;;5045016;28;20252;-65
2022/09/18 01:51:32;;;;;;;0.95;0.38;;;;;;;;;;5043279;28;20281;-65
2022/09/18 01:54:01;;;;;;;1.13;0.50;;;;;;;;;;5046263;28;20267;-65
2022/09/18 01:56:32;;;;;;;0.85;0.40;;;;;;;;;;5045945;28;20198;-66
2022/09/18 01:59:02;;;;;;;1.20;0.50;;;;;;;;;;5048993;28;20644;-65
2022/09/18 02:01:31;;;;;;;0.50;0.30;;;;;;;;;;5050537;28;20296;-65
2022/09/18 02:04:01;;;;;;;0.73;0.50;;;;;;;;;;5044315;28;20284;-66
2022/09/18 02:06:30;;;;;;;0.93;0.50;;;;;;;;;;5045148;28;20236;-66
2022/09/18 02:08:59;;;;;;;0.50;0.40;;;;;;;;;;5048893;28;20305;-65
2022/09/18 02:11:28;;;;;;;0.38;0.38;;;;;;;;;;5048628;28;20256;-65
2022/09/18 02:13:58;;;;;;;1.27;0.60;;;;;;;;;;5048330;28;20228;-65
2022/09/18 02:16:30;;;;;;;0.98;0.50;;;;;;;;;;5047710;28;20198;-65
2022/09/18 02:18:58;;;;;;;0.70;0.50;;;;;;;;;;5044077;28;20233;-65
2022/09/18 02:21:27;;;;;;;1.13;0.50;;;;;;;;;;5045763;28;20288;-65
2022/09/18 02:23:55;;;;;;;0.63;0.40;;;;;;;;;;5046087;28;20288;-65
2022/09/18 02:26:23;;;;;;;0.73;0.50;;;;;;;;;;5043461;28;20276;-65
2022/09/18 02:28:54;;;;;;;0.70;0.40;;;;;;;;;;5050829;28;20299;-65
2022/09/18 02:31:22;;;;;;;0.50;0.30;;;;;;;;;;5047356;28;20229;-65
2022/09/18 02:33:53;;;;;;;0.75;0.40;;;;;;;;;;5049555;28;20225;-65
2022/09/18 02:36:35;;;;;;;0.77;0.30;;;;;;;;;;5042664;28;20209;-65
2022/09/18 02:39:09;;;;;;;0.70;0.40;;;;;;;;;;5046451;28;20247;-65
2022/09/18 02:41:42;;;;;;;0.40;0.30;;;;;;;;;;5050000;28;20557;-65
2022/09/18 02:44:12;;;;;;;0.80;0.40;;;;;;;;;;5045731;28;20251;-65
2022/09/18 02:46:43;;;;;;;0.80;0.40;;;;;;;;;;5045016;28;20229;-66
2022/09/18 02:49:14;;;;;;;0.73;0.50;;;;;;;;;;5047850;28;20615;-66
2022/09/18 02:51:44;;;;;;;0.95;0.43;;;;;;;;;;5045910;28;20257;-65
2022/09/18 02:54:13;;;;;;;0.75;0.40;;;;;;;;;;5047408;28;20210;-65
2022/09/18 02:56:43;;;;;;;0.43;0.35;;;;;;;;;;5047508;28;20280;-65
2022/09/18 02:59:13;;;;;;;0.70;0.40;;;;;;;;;;5050372;28;20252;-65
2022/09/18 03:01:42;;;;;;;0.38;0.30;;;;;;;;;;5042411;28;20285;-65
2022/09/18 03:04:13;;;;;;;0.80;0.50;;;;;;;;;;5042088;28;20247;-65
2022/09/18 03:06:41;;;;;;;0.50;0.30;;;;;;;;;;5040076;28;20296;-66
2022/09/18 03:09:08;;;;;;;0.40;0.30;;;;;;;;;;5041470;28;20202;-66
2022/09/18 03:11:36;;;;;;;0.50;0.30;;;;;;;;;;5044177;28;20286;-66
2022/09/18 03:14:04;;;;;;;0.57;0.40;;;;;;;;;;5051639;28;20255;-65
2022/09/18 03:16:31;;;;;;;0.73;0.40;;;;;;;;;;5050155;28;20281;-65
2022/09/18 03:18:59;;;;;;;1.45;0.45;;;;;;;;;;5046284;28;20295;-65
2022/09/18 03:21:28;;;;;;;0.57;0.35;;;;;;;;;;5046385;28;20284;-65
2022/09/18 03:23:56;;;;;;;0.70;0.40;;;;;;;;;;5049160;28;20215;-66
2022/09/18 03:26:23;;;;;;;0.60;0.40;;;;;;;;;;5046616;28;20226;-66
2022/09/18 03:28:51;;;;;;;0.50;0.40;;;;;;;;;;5044202;28;20198;-65
2022/09/18 03:31:18;;;;;;;0.90;0.30;;;;;;;;;;5044912;28;20687;-65
2022/09/18 03:33:46;;;;;;;0.40;0.30;;;;;;;;;;5048664;28;20335;-65
2022/09/18 03:36:13;;;;;;;0.77;0.45;;;;;;;;;;5044554;28;20624;-66
2022/09/18 03:38:42;;;;;;;0.80;0.50;;;;;;;;;;5045664;28;20295;-66
2022/09/18 03:41:10;;;;;;;0.95;0.40;;;;;;;;;;5046972;28;20642;-65
2022/09/18 03:43:38;;;;;;;0.70;0.50;;;;;;;;;;5048892;28;20210;-66
2022/09/18 03:46:06;;;;;;;0.70;0.43;;;;;;;;;;5047440;28;20220;-65
2022/09/18 03:48:33;;;;;;;0.50;0.35;;;;;;;;;;5045960;28;20196;-66
2022/09/18 03:51:01;;;;;;;0.60;0.40;;;;;;;;;;5044329;28;20322;-65
2022/09/18 03:53:28;;;;;;;0.43;0.30;;;;;;;;;;5041023;28;20327;-65
2022/09/18 03:55:57;;;;;;;0.75;0.50;;;;;;;;;;5045985;28;20201;-65
2022/09/18 03:58:25;;;;;;;0.73;0.50;;;;;;;;;;5045297;28;20289;-65
2022/09/18 04:00:52;;;;;;;0.50;0.45;;;;;;;;;;5044121;28;20217;-65
2022/09/18 04:03:19;;;;;;;0.80;0.30;;;;;;;;;;5047716;28;20288;-65
2022/09/18 04:05:49;;;;;;;0.35;0.30;;;;;;;;;;5048522;28;20205;-65
2022/09/18 04:08:17;;;;;;;0.50;0.28;;;;;;;;;;5049088;28;20288;-65
2022/09/18 04:10:44;;;;;;;1.48;0.40;;;;;;;;;;5045466;28;20225;-65
2022/09/18 04:13:13;;;;;;;0.93;0.50;;;;;;;;;;5045443;28;20332;-65
2022/09/18 04:15:43;;;;;;;1.02;0.47;;;;;;;;;;5043617;28;20269;-65
2022/09/18 04:18:11;;;;;;;0.95;0.40;;;;;;;;;;5044019;28;20197;-65
2022/09/18 04:20:38;;;;;;;0.77;0.47;;;;;;;;;;5046522;28;20225;-65
2022/09/18 04:23:06;;;;;;;0.50;0.40;;;;;;;;;;5046499;28;20279;-65
2022/09/18 04:25:33;;;;;;;0.70;0.40;;;;;;;;;;5042487;28;20197;-65
2022/09/18 04:28:01;;;;;;;0.68;0.30;;;;;;;;;;5048548;28;20232;-65
2022/09/18 04:30:29;;;;;;;0.93;0.50;;;;;;;;;;5051082;28;20232;-65
2022/09/18 04:32:57;;;;;;;0.63;0.50;;;;;;;;;;5050686;28;20198;-65
2022/09/18 04:35:24;;;;;;;0.50;0.40;;;;;;;;;;5041429;28;20261;-65
2022/09/18 04:37:52;;;;;;;0.90;0.50;;;;;;;;;;5043567;28;20308;-65
2022/09/18 04:40:19;;;;;;;0.57;0.40;;;;;;;;;;5047177;28;20248;-65
2022/09/18 04:42:47;;;;;;;0.82;0.73;;;;;;;;;;5049208;28;20213;-65
2022/09/18 04:45:14;;;;;;;0.40;0.30;;;;;;;;;;5043797;28;20230;-65
2022/09/18 04:47:44;;;;;;;0.47;0.40;;;;;;;;;;5041810;28;20284;-65
2022/09/18 04:50:11;;;;;;;0.85;0.50;;;;;;;;;;5044529;28;20220;-65
2022/09/18 04:52:39;;;;;;;1.08;0.70;;;;;;;;;;5044775;28;20773;-65
2022/09/18 04:55:07;;;;;;;1.02;0.50;;;;;;;;;;5045128;28;20301;-65
2022/09/18 04:57:34;;;;;;;0.43;0.40;;;;;;;;;;5048145;28;20640;-66
2022/09/18 05:00:02;;;;;;;0.50;0.50;;;;;;;;;;5044345;28;20233;-65
2022/09/18 05:02:30;;;;;;;0.70;0.50;;;;;;;;;;5045239;28;20212;-65
2022/09/18 05:04:59;;;;;;;0.52;0.40;;;;;;;;;;5043421;28;20197;-65
2022/09/18 05:07:27;;;;;;;0.50;0.50;;;;;;;;;;5046398;28;20707;-65
2022/09/18 05:09:54;;;;;;;0.75;0.40;;;;;;;;;;5050196;28;20202;-65
2022/09/18 05:12:21;;;;;;;0.60;0.40;;;;;;;;;;5053880;28;20583;-65
2022/09/18 05:14:49;;;;;;;0.68;0.50;;;;;;;;;;5046635;28;20530;-65
2022/09/18 05:17:17;;;;;;;0.60;0.50;;;;;;;;;;5042859;28;20280;-65
2022/09/18 05:19:44;;;;;;;0.70;0.43;;;;;;;;;;5044898;28;20216;-65
2022/09/18 05:22:13;;;;;;;0.47;0.30;;;;;;;;;;5050025;28;20204;-66
2022/09/18 05:24:41;;;;;;;1.02;0.50;;;;;;;;;;5047332;28;20543;-65
2022/09/18 05:27:08;;;;;;;0.50;0.40;;;;;;;;;;5043151;28;20284;-65
2022/09/18 05:29:36;;;;;;;1.08;0.50;;;;;;;;;;5046619;28;20279;-65
2022/09/18 05:32:04;;;;;;;0.40;0.40;;;;;;;;;;5050247;28;20231;-65
2022/09/18 05:34:31;;;;;;;0.70;0.40;;;;;;;;;;5051623;28;20320;-65
2022/09/18 05:36:58;;;;;;;0.50;0.40;;;;;;;;;;5045162;28;20296;-65
2022/09/18 05:39:27;;;;;;;0.30;0.30;;;;;;;;;;5049877;28;20231;-65
2022/09/18 05:41:55;;;;;;;0.43;0.40;;;;;;;;;;5051263;28;20285;-65
2022/09/18 05:44:22;;;;;;;0.35;0.35;;;;;;;;;;5045561;28;20208;-65
2022/09/18 05:46:50;;;;;;;0.43;0.40;;;;;;;;;;5050837;28;20543;-65
2022/09/18 05:49:17;;;;;;;0.60;0.40;;;;;;;;;;5046241;28;20613;-65
2022/09/18 05:51:45;;;;;;;0.82;0.43;;;;;;;;;;5048128;28;20252;-65
2022/09/18 05:54:13;;;;;;;0.45;0.35;;;;;;;;;;5047797;28;20556;-65
2022/09/18 05:56:42;;;;;;;0.60;0.40;;;;;;;;;;5044591;28;20206;-65
2022/09/18 05:59:10;;;;;;;0.60;0.40;;;;;;;;;;5044940;28;20244;-65
2022/09/18 06:01:37;;;;;;;0.80;0.40;;;;;;;;;;5044012;28;20586;-65
2022/09/18 06:04:05;;;;;;;0.52;0.38;;;;;;;;;;5044434;28;20201;-65
2022/09/18 06:06:34;;;;;;;0.77;0.40;;;;;;;;;;5049630;28;20201;-65
2022/09/18 06:09:01;;;;;;;0.45;0.45;;;;;;;;;;5045212;28;20292;-65
2022/09/18 06:11:28;;;;;;;0.82;0.40;;;;;;;;;;5047407;28;20257;-65
2022/09/18 06:13:57;;;;;;;0.82;0.50;;;;;;;;;;5045161;28;20289;-65
2022/09/18 06:16:25;;;;;;;0.98;0.30;;;;;;;;;;5040897;28;20197;-65
2022/09/18 06:18:52;;;;;;;0.40;0.38;;;;;;;;;;5050978;28;20236;-65
2022/09/18 06:21:20;;;;;;;0.50;0.40;;;;;;;;;;5046244;28;20232;-65
2022/09/18 06:23:47;;;;;;;0.60;0.40;;;;;;;;;;5047371;28;20224;-65
2022/09/18 06:26:15;;;;;;;1.10;0.57;;;;;;;;;;5043419;28;20674;-65
2022/09/18 06:28:42;;;;;;;0.30;0.30;;;;;;;;;;5046731;28;20296;-66
2022/09/18 06:31:11;;;;;;;1.13;0.50;;;;;;;;;;5042624;28;20319;-66
2022/09/18 06:33:39;;;;;;;1.60;0.40;;;;;;;;;;5045969;28;20646;-66
2022/09/18 06:36:12;;;;;;;2.22;0.60;;;;;;;;;;5043528;28;20284;-65
2022/09/18 06:38:40;;;;;;;0.70;0.40;;;;;;;;;;5046286;28;20209;-66
2022/09/18 06:41:07;;;;;;;0.85;0.43;;;;;;;;;;5045569;28;20204;-65
2022/09/18 06:43:35;;;;;;;2.00;0.45;;;;;;;;;;5044463;28;20215;-66
2022/09/18 06:46:03;;;;;;;0.50;0.50;;;;;;;;;;5048227;28;20565;-65
2022/09/18 06:48:32;;;;;;;0.40;0.30;;;;;;;;;;5050981;28;20255;-66
2022/09/18 06:51:00;;;;;;;1.00;0.50;;;;;;;;;;5044748;28;20669;-66
2022/09/18 06:53:28;;;;;;;0.73;0.43;;;;;;;;;;5040696;28;20212;-65
2022/09/18 06:56:00;;;;;;;0.60;0.47;;;;;;;;;;5041897;28;20263;-65
2022/09/18 06:58:28;;;;;;;0.50;0.40;;;;;;;;;;5050247;28;20300;-65
2022/09/18 07:00:55;;;;;;;0.43;0.40;;;;;;;;;;5050993;28;20221;-66
2022/09/18 07:03:23;;;;;;;0.57;0.43;;;;;;;;;;5050288;28;20529;-66
2022/09/18 07:05:51;;;;;;;0.98;0.40;;;;;;;;;;5053139;28;20210;-66
2022/09/18 07:08:19;;;;;;;0.60;0.50;;;;;;;;;;5044342;28;20197;-66
2022/09/18 07:10:46;;;;;;;0.30;0.30;;;;;;;;;;5047380;28;20578;-66
2022/09/18 07:13:14;;;;;;;1.08;0.50;;;;;;;;;;5047286;28;20217;-66
2022/09/18 07:15:41;;;;;;;0.50;0.50;;;;;;;;;;5041810;28;20673;-66
2022/09/18 07:18:09;;;;;;;1.38;0.43;;;;;;;;;;5046302;28;20323;-66
2022/09/18 07:20:36;;;;;;;0.80;0.50;;;;;;;;;;5042195;28;20228;-66
2022/09/18 07:23:05;;;;;;;0.70;0.50;;;;;;;;;;5045364;28;20229;-66
2022/09/18 07:25:33;;;;;;;1.75;0.50;;;;;;;;;;5047798;28;20288;-66
2022/09/18 07:28:06;;;;;;;0.60;0.40;;;;;;;;;;5042452;28;20208;-66
2022/09/18 07:30:34;;;;;;;0.40;0.30;;;;;;;;;;5043853;28;21695;-66
2022/09/18 07:33:02;;;;;;;0.88;0.43;;;;;;;;;;5046815;28;20232;-66
2022/09/18 07:35:31;;;;;;;1.52;0.50;;;;;;;;;;5048132;28;20524;-66
2022/09/18 07:37:59;;;;;;;0.50;0.47;;;;;;;;;;5045113;28;20292;-66
2022/09/18 07:40:28;;;;;;;1.30;0.60;;;;;;;;;;5045248;28;20289;-66
2022/09/18 07:42:59;;;;;;;0.60;0.60;;;;;;;;;;5043362;28;20225;-66
2022/09/18 07:45:26;;;;;;;2.10;0.60;;;;;;;;;;5043235;28;20594;-66
2022/09/18 07:47:54;;;;;;;0.80;0.50;;;;;;;;;;5042477;28;20725;-67
2022/09/18 07:50:21;;;;;;;4.50;0.60;;;;;;;;;;5043967;28;20197;-66
2022/09/18 07:52:50;;;;;;;0.60;0.47;;;;;;;;;;5046068;28;20504;-66
2022/09/18 07:55:19;;;;;;;1.05;0.40;;;;;;;;;;5045328;28;20263;-66
2022/09/18 07:57:48;;;;;;;1.50;0.50;;;;;;;;;;5041309;28;20277;-67
2022/09/18 08:00:16;;;;;;;1.20;0.60;;;;;;;;;;5044497;28;20201;-66
2022/09/18 08:02:43;;;;;;;1.73;0.50;;;;;;;;;;5042677;28;20284;-66
2022/09/18 08:05:11;;;;;;;0.47;0.40;;;;;;;;;;5043129;28;20282;-66
2022/09/18 08:07:38;;;;;;;2.15;0.73;;;;;;;;;;5043381;28;20283;-66
2022/09/18 08:10:06;;;;;;;1.60;0.70;;;;;;;;;;5042533;28;20197;-66
2022/09/18 08:12:36;;;;;;;1.67;0.60;;;;;;;;;;5041468;28;20304;-66
2022/09/18 08:15:09;;;;;;;1.52;0.50;;;;;;;;;;5046026;28;20501;-67
2022/09/18 08:17:36;;;;;;;1.55;0.52;;;;;;;;;;5045593;28;20653;-66
2022/09/18 08:20:05;;;;;;;1.00;0.40;;;;;;;;;;5044453;28;20713;-66
2022/09/18 08:22:33;;;;;;;1.05;0.60;;;;;;;;;;5038348;28;20201;-67
2022/09/18 08:25:00;;;;;;;1.80;0.73;;;;;;;;;;5042037;28;20267;-66
2022/09/18 08:27:27;;;;;;;1.05;0.60;;;;;;;;;;5044954;28;20198;-66
2022/09/18 08:29:56;;;;;;;1.38;0.60;;;;;;;;;;5045220;28;20342;-66
2022/09/18 08:32:25;;;;;;;2.75;0.60;;;;;;;;;;5042799;28;20222;-66
2022/09/18 08:34:53;;;;;;;1.27;0.60;;;;;;;;;;5041055;28;20324;-67
2022/09/18 08:37:20;;;;;;;3.22;0.93;;;;;;;;;;5043738;28;20212;-66
2022/09/18 08:39:48;;;;;;;1.13;0.50;;;;;;;;;;5044630;28;20289;-66
2022/09/18 08:42:20;;;;;;;1.45;0.57;;;;;;;;;;5045258;28;20203;-66
2022/09/18 08:44:48;;;;;;;0.77;0.57;;;;;;;;;;5047340;28;20236;-66
2022/09/18 08:47:20;;;;;;;3.28;0.85;;;;;;;;;;5047450;28;20220;-66
2022/09/18 08:49:50;;;;;;;1.38;0.63;;;;;;;;;;5043931;28;20215;-66
2022/09/18 08:52:19;;;;;;;0.60;0.55;;;;;;;;;;5048155;28;20279;-66
2022/09/18 08:54:49;;;;;;;1.25;0.60;;;;;;;;;;5048579;28;20236;-66
2022/09/18 08:57:19;;;;;;;1.83;0.50;;;;;;;;;;5048842;28;20610;-66
2022/09/18 08:59:49;;;;;;;1.88;0.52;;;;;;;;;;5045884;28;20233;-66
2022/09/18 09:02:38;;;;;;;1.48;0.60;;;;;;;;;;5046684;28;20244;-66
2022/09/18 09:05:11;;;;;;;1.40;0.43;;;;;;;;;;5047823;28;20223;-66
2022/09/18 09:07:57;;;;;;;0.90;0.40;;;;;;;;;;5047610;28;20229;-66
2022/09/18 09:10:33;;;;;;;2.08;0.70;;;;;;;;;;5048171;28;20299;-66
2022/09/18 09:13:12;;;;;;;1.52;0.65;;;;;;;;;;5046118;28;20228;-66
2022/09/18 09:15:44;;;;;;;2.25;0.60;;;;;;;;;;5048730;28;20288;-66
2022/09/18 09:18:16;;;;;;;1.73;0.50;;;;;;;;;;5044195;28;20263;-64
2022/09/18 09:20:50;;;;;;;2.53;0.60;;;;;;;;;;5047072;28;20300;-64
2022/09/18 09:23:20;;;;;;;2.15;0.70;;;;;;;;;;5043964;28;20193;-63
2022/09/18 09:25:52;;;;;;;2.05;0.70;;;;;;;;;;5045836;28;20228;-64
2022/09/18 09:28:21;;;;;;;2.13;0.52;;;;;;;;;;5042812;28;20259;-64
2022/09/18 09:30:49;;;;;;;2.70;0.77;;;;;;;;;;5044642;28;20224;-64
2022/09/18 09:33:20;;;;;;;1.52;0.70;;;;;;;;;;5048175;28;20499;-63
2022/09/18 09:35:49;;;;;;;1.52;0.63;;;;;;;;;;5047536;28;20197;-64
2022/09/18 09:38:30;;;;;;;2.72;0.65;;;;;;;;;;5046190;28;20520;-64
2022/09/18 09:40:58;;;;;;;2.72;0.75;;;;;;;;;;5045531;28;20214;-63
2022/09/18 09:43:28;;;;;;;2.60;0.95;;;;;;;;;;5046677;28;20664;-63
2022/09/18 09:45:58;;;;;;;4.22;1.05;;;;;;;;;;5048974;28;20267;-63
2022/09/18 09:48:28;;;;;;;2.72;1.15;;;;;;;;;;5045130;28;20202;-63
2022/09/18 09:51:00;;;;;;;4.90;1.60;;;;;;;;;;5044742;28;20305;-63
2022/09/18 09:53:28;;;;;;;3.28;1.73;;;;;;;;;;5044396;28;20695;-63
2022/09/18 09:56:01;;;;;;;5.10;1.85;;;;;;;;;;5043385;28;20263;-63
2022/09/18 09:58:40;;;;;;;4.15;1.60;;;;;;;;;;5044478;28;20526;-64
2022/09/18 10:01:11;;;;;;;6.55;1.92;;;;;;;;;;5047310;28;20229;-63
2022/09/18 10:03:46;;;;;;;3.53;1.75;;;;;;;;;;5047210;28;20204;-63
2022/09/18 10:06:22;;;;;;;4.60;1.98;;;;;;;;;;5044780;28;20205;-63
2022/09/18 10:08:51;;;;;;;5.72;2.10;;;;;;;;;;5044134;28;20247;-64
2022/09/18 10:11:19;;;;;;;5.45;1.98;;;;;;;;;;5045538;28;20271;-63
2022/09/18 10:13:49;;;;;;;4.50;2.13;;;;;;;;;;5047588;28;20270;-63
2022/09/18 10:16:18;;;;;;;4.53;2.05;;;;;;;;;;5044677;28;20208;-64
2022/09/18 10:18:46;;;;;;;5.28;2.33;;;;;;;;;;5044534;28;20197;-64
2022/09/18 10:21:16;;;;;;;4.47;2.15;;;;;;;;;;5044952;28;20594;-64
2022/09/18 10:23:45;;;;;;;5.00;2.53;;;;;;;;;;5042974;28;20201;-64
2022/09/18 10:26:15;;;;;;;7.10;2.67;;;;;;;;;;5045647;28;20233;-63
2022/09/18 10:28:43;;;;;;;4.90;2.20;;;;;;;;;;5048096;28;20229;-63
2022/09/18 10:31:11;;;;;;;7.38;2.70;;;;;;;;;;5044989;28;20209;-63
2022/09/18 10:33:39;;;;;;;5.13;2.45;;;;;;;;;;5046766;28;20264;-63
2022/09/18 10:36:21;;;;;;;5.15;2.40;;;;;;;;;;5048438;28;20208;-63
2022/09/18 10:38:51;;;;;;;4.70;2.47;;;;;;;;;;5044973;28;20197;-63
2022/09/18 10:41:30;;;;;;;6.45;2.70;;;;;;;;;;5044390;28;20233;-64
2022/09/18 10:43:59;;;;;;;4.78;2.47;;;;;;;;;;5042357;28;20298;-64
2022/09/18 10:46:27;;;;;;;6.38;2.42;;;;;;;;;;5044577;28;20248;-63
2022/09/18 10:48:55;;;;;;;4.63;2.40;;;;;;;;;;5044632;28;20201;-64
2022/09/18 10:51:27;;;;;;;6.28;2.47;;;;;;;;;;5043718;28;20189;-64
2022/09/18 10:54:15;;;;;;;5.55;2.20;;;;;;;;;;5045241;28;20221;-64
2022/09/18 10:56:42;;;;;;;4.30;2.40;;;;;;;;;;5045798;28;20237;-63
2022/09/18 10:59:14;;;;;;;5.25;2.75;;;;;;;;;;5044313;28;20229;-63
2022/09/18 11:01:42;;;;;;;5.00;2.33;;;;;;;;;;5046567;28;20198;-63
2022/09/18 11:04:15;;;;;;;5.03;2.30;;;;;;;;;;5041174;28;20194;-63
2022/09/18 11:06:44;;;;;;;5.20;2.60;;;;;;;;;;5042643;28;20293;-64
2022/09/18 11:09:17;;;;;;;3.95;2.40;;;;;;;;;;5044009;28;20216;-63
2022/09/18 11:11:49;;;;;;;3.90;2.28;;;;;;;;;;5044269;28;20197;-63
2022/09/18 11:14:17;;;;;;;3.78;2.05;;;;;;;;;;5044709;28;20218;-64
2022/09/18 11:16:47;;;;;;;5.22;2.17;;;;;;;;;;5046571;28;20594;-64
2022/09/18 11:19:21;;;;;;;5.70;2.30;;;;;;;;;;5044903;28;20282;-63
2022/09/18 11:21:49;;;;;;;4.53;2.40;;;;;;;;;;5041183;28;20638;-63
2022/09/18 11:24:24;;;;;;;6.35;2.40;;;;;;;;;;5043442;28;20328;-63
2022/09/18 11:26:52;;;;;;;4.57;2.33;;;;;;;;;;5046550;28;20292;-63
2022/09/18 11:29:23;;;;;;;5.20;2.30;;;;;;;;;;5043738;28;20288;-63
2022/09/18 11:31:54;;;;;;;4.65;2.20;;;;;;;;;;5046420;28;20285;-63
2022/09/18 11:34:23;;;;;;;4.32;2.33;;;;;;;;;;5043111;28;20261;-64
2022/09/18 11:36:52;;;;;;;3.60;2.60;;;;;;;;;;5047729;28;20288;-63
2022/09/18 11:39:24;;;;;;;6.65;2.25;;;;;;;;;;5046818;28;20257;-63
2022/09/18 11:41:53;;;;;;;3.88;1.90;;;;;;;;;;5044107;28;20228;-63
2022/09/18 11:44:23;;;;;;;4.35;2.33;;;;;;;;;;5042778;28;20298;-64
2022/09/18 11:46:56;;;;;;;4.07;2.20;;;;;;;;;;5041291;28;20193;-64
2022/09/18 11:49:26;;;;;;;4.07;2.17;;;;;;;;;;5046690;28;20286;-64
2022/09/18 11:51:56;;;;;;;3.60;2.10;;;;;;;;;;5045394;28;20298;-63
2022/09/18 11:54:28;;;;;;;4.30;2.13;;;;;;;;;;5039761;28;20225;-63
2022/09/18 11:56:59;;;;;;;3.85;2.00;;;;;;;;;;5035218;28;20510;-64
2022/09/18 11:59:29;;;;;;;4.00;1.92;;;;;;;;;;5035808;28;20205;-64
2022/09/18 12:01:59;;;;;;;3.97;2.30;;;;;;;;;;5035511;28;20300;-63
2022/09/18 12:04:35;;;;;;;3.13;2.05;;;;;;;;;;5035706;28;20578;-63
2022/09/18 12:07:05;;;;;;;4.40;2.10;;;;;;;;;;5035501;28;20248;-63
2022/09/18 12:09:36;;;;;;;3.90;2.13;;;;;;;;;;5035952;28;20206;-64
2022/09/18 12:12:08;;;;;;;3.50;2.15;;;;;;;;;;5038681;28;20275;-63
2022/09/18 12:14:40;;;;;;;4.70;2.10;;;;;;;;;;5019623;28;20225;-63
2022/09/18 12:17:13;;;;;;;2.30;1.65;;;;;;;;;;5039012;28;20645;-63
2022/09/18 12:19:48;;;;;;;4.40;2.22;;;;;;;;;;5039268;28;20233;-63
2022/09/18 12:22:17;;;;;;;3.53;2.00;;;;;;;;;;5040087;28;20270;-63
2022/09/18 12:24:45;;;;;;;3.58;1.92;;;;;;;;;;5039908;28;20296;-63
2022/09/18 12:27:21;;;;;;;3.35;1.65;;;;;;;;;;5041159;28;20237;-63
2022/09/18 12:29:54;;;;;;;2.88;1.73;;;;;;;;;;5042084;28;20231;-63
2022/09/18 12:32:29;;;;;;;4.22;2.03;;;;;;;;;;5041768;28;20237;-63
2022/09/18 12:35:01;;;;;;;3.55;1.52;;;;;;;;;;5041545;28;20233;-63
2022/09/18 12:37:35;;;;;;;2.80;1.73;;;;;;;;;;5041146;28;20209;-64
2022/09/18 12:40:08;;;;;;;2.60;1.58;;;;;;;;;;5039047;28;20241;-63
2022/09/18 12:42:43;;;;;;;2.88;1.80;;;;;;;;;;5039027;28;20202;-64
2022/09/18 12:45:29;;;;;;;2.95;1.73;;;;;;;;;;5039369;28;20312;-63
2022/09/18 12:48:04;;;;;;;2.67;1.80;;;;;;;;;;5039248;28;20531;-63
2022/09/18 12:50:40;;;;;;;3.45;1.70;;;;;;;;;;5038703;28;20308;-63
2022/09/18 12:53:15;;;;;;;3.67;1.60;;;;;;;;;;5037801;28;20217;-63
2022/09/18 12:56:04;;;;;;;2.95;1.30;;;;;;;;;;5037732;28;20201;-64
2022/09/18 12:58:38;;;;;;;2.20;1.60;;;;;;;;;;5034091;28;20209;-63
2022/09/18 13:01:10;;;;;;;34.53;31.23;;;;;;;;;;5038505;28;20676;-63
2022/09/18 13:03:39;;;;;;;36.15;32.75;;;;;;;;;;5038521;28;20298;-63
2022/09/18 13:06:09;;;;;;;29.75;26.95;;;;;;;;;;5038698;28;20209;-63
2022/09/18 13:08:40;;;;;;;28.40;25.80;;;;;;;;;;5037628;28;20245;-63
2022/09/18 13:11:11;;;;;;;27.75;24.95;;;;;;;;;;5037881;28;20676;-63
2022/09/18 13:13:45;;;;;;;27.67;24.98;;;;;;;;;;5038149;28;20598;-63
2022/09/18 13:16:16;;;;;;;25.10;22.60;;;;;;;;;;5038540;28;20224;-64
2022/09/18 13:18:47;;;;;;;23.98;21.60;;;;;;;;;;5038117;28;20296;-63
2022/09/18 13:21:16;;;;;;;22.45;20.17;;;;;;;;;;5037501;28;20202;-64
2022/09/18 13:23:44;;;;;;;20.77;18.67;;;;;;;;;;5037262;28;20301;-64
2022/09/18 13:26:13;;;;;;;19.52;17.63;;;;;;;;;;5037197;28;20292;-64
2022/09/18 13:28:43;;;;;;;24.73;22.38;;;;;;;;;;5038705;28;20644;-63
2022/09/18 13:31:28;;;;;;;27.98;25.02;;;;;;;;;;5038388;28;20293;-63
2022/09/18 13:33:56;;;;;;;22.23;19.65;;;;;;;;;;5037447;28;20248;-63
2022/09/18 13:36:25;;;;;;;19.48;17.40;;;;;;;;;;5038010;28;20279;-64
2022/09/18 13:38:53;;;;;;;18.63;16.67;;;;;;;;;;5038654;28;20273;-64
2022/09/18 13:41:21;;;;;;;17.65;15.88;;;;;;;;;;5039029;28;20264;-65
2022/09/18 13:43:54;;;;;;;16.85;15.15;;;;;;;;;;5038468;28;20204;-64
2022/09/18 13:46:32;;;;;;;16.15;14.50;;;;;;;;;;5038119;28;20236;-64
2022/09/18 13:49:02;;;;;;;15.20;13.70;;;;;;;;;;5037339;28;20204;-64
2022/09/18 13:51:31;;;;;;;14.73;12.85;;;;;;;;;;5037486;28;20293;-64
2022/09/18 13:54:13;;;;;;;14.98;13.48;;;;;;;;;;5037333;28;20225;-63
2022/09/18 13:56:55;;;;;;;13.85;12.07;;;;;;;;;;5034576;28;20205;-63
2022/09/18 13:59:43;;;;;;;24.88;21.48;;;;;;;;;;5036574;28;20212;-64
2022/09/18 14:02:23;;;;;;;24.60;22.00;;;;;;;;;;5037215;28;20213;-64
2022/09/18 14:05:09;;;;;;;21.20;19.00;;;;;;;;;;5037323;28;20202;-63
2022/09/18 14:07:55;;;;;;;19.48;17.38;;;;;;;;;;5037669;28;20218;-63
2022/09/18 14:10:25;;;;;;;22.83;16.05;;;;;;;;;;5037187;28;20271;-63
2022/09/18 14:13:20;;;;;;;21.83;19.40;;;;;;;;;;5037554;28;20209;-64
2022/09/18 14:15:53;;;;;;;22.35;19.48;;;;;;;;;;5036110;28;20229;-63
2022/09/18 14:18:23;;;;;;;23.25;20.35;;;;;;;;;;5036311;28;20198;-63
2022/09/18 14:20:52;;;;;;;20.90;17.40;;;;;;;;;;5036757;28;20205;-63
2022/09/18 14:23:39;;;;;;;21.48;16.98;;;;;;;;;;5036897;28;20214;-63
2022/09/18 14:26:09;;;;;;;17.00;15.23;;;;;;;;;;5036648;28;20399;-63
2022/09/18 14:28:37;;;;;;;15.88;14.27;;;;;;;;;;5037423;28;20205;-64
2022/09/18 14:31:13;;;;;;;15.70;14.05;;;;;;;;;;5036689;28;20220;-63
2022/09/18 14:33:41;;;;;;;15.00;13.50;;;;;;;;;;5036430;28;20225;-64
2022/09/18 14:36:10;;;;;;;15.98;13.15;;;;;;;;;;5036192;28;20206;-63
2022/09/18 14:38:39;;;;;;;13.52;12.13;;;;;;;;;;5036695;28;20631;-64
2022/09/18 14:41:17;;;;;;;12.05;10.85;;;;;;;;;;5036916;28;20216;-63
2022/09/18 14:43:48;;;;;;;12.20;10.43;;;;;;;;;;5036314;28;20572;-63
2022/09/18 14:46:22;;;;;;;11.00;9.90;;;;;;;;;;5036423;28;20237;-63
2022/09/18 14:48:50;;;;;;;10.23;9.13;;;;;;;;;;5036727;28;20301;-64
2022/09/18 14:51:18;;;;;;;10.10;9.10;;;;;;;;;;5035968;28;20300;-64
2022/09/18 14:53:48;;;;;;;11.75;8.35;;;;;;;;;;5037346;28;20561;-64
2022/09/18 14:56:17;;;;;;;8.73;7.82;;;;;;;;;;5036619;28;20268;-63
2022/09/18 14:58:46;;;;;;;9.85;8.07;;;;;;;;;;5035920;28;20238;-65